sensor_id;sensor_type;location;lat;lon;timestamp;P1;durP1;ratioP1;P2;durP2;ratioP2
16977;SDS011;8605;52.548;4.918;2023-10-08T16:33:52;3.23;;;2.10;;
16977;SDS011;8605;52.548;4.918;2023-10-08T16:36:20;1.67;;;1.50;;
16977;SDS011;8605;52.548;4.918;2023-10-08T16:38:50;4.07;;;2.37;;
16977;SDS011;8605;52.548;4.918;2023-10-08T16:41:20;4.23;;;2.43;;
16977;SDS011;8605;52.548;4.918;2023-10-08T16:43:48;2.57;;;2.07;;
16977;SDS011;8605;52.548;4.918;2023-10-08T16:46:17;4.13;;;2.00;;
16977;SDS011;8605;52.548;4.918;2023-10-08T16:48:44;4.60;;;1.83;;
16977;SDS011;8605;52.548;4.918;2023-10-08T16:51:13;3.13;;;2.10;;
16977;SDS011;8605;52.548;4.918;2023-10-08T16:53:43;3.80;;;2.23;;
16977;SDS011;8605;52.548;4.918;2023-10-08T16:56:12;5.87;;;2.33;;
16977;SDS011;8605;52.548;4.918;2023-10-08T16:58:40;7.27;;;2.80;;
16977;SDS011;8605;52.548;4.918;2023-10-08T17:01:08;3.87;;;2.37;;
16977;SDS011;8605;52.548;4.918;2023-10-08T17:03:38;4.33;;;2.27;;
16977;SDS011;8605;52.548;4.918;2023-10-08T17:06:06;3.87;;;1.87;;
16977;SDS011;8605;52.548;4.918;2023-10-08T17:08:35;5.17;;;2.53;;
16977;SDS011;8605;52.548;4.918;2023-10-08T17:11:04;4.40;;;2.50;;
16977;SDS011;8605;52.548;4.918;2023-10-08T17:13:33;3.63;;;2.53;;
16977;SDS011;8605;52.548;4.918;2023-10-08T17:16:00;6.53;;;2.00;;
16977;SDS011;8605;52.548;4.918;2023-10-08T17:18:31;3.87;;;1.53;;
16977;SDS011;8605;52.548;4.918;2023-10-08T17:21:00;3.00;;;1.33;;
16977;SDS011;8605;52.548;4.918;2023-10-08T17:23:28;4.03;;;1.70;;
16977;SDS011;8605;52.548;4.918;2023-10-08T17:25:56;4.50;;;1.70;;
16977;SDS011;8605;52.548;4.918;2023-10-08T17:28:25;1.13;;;1.00;;
16977;SDS011;8605;52.548;4.918;2023-10-08T17:30:53;2.43;;;1.27;;
16977;SDS011;8605;52.548;4.918;2023-10-08T17:33:22;1.77;;;1.27;;
16977;SDS011;8605;52.548;4.918;2023-10-08T17:35:50;2.43;;;1.53;;
16977;SDS011;8605;52.548;4.918;2023-10-08T17:38:19;3.53;;;2.03;;
16977;SDS011;8605;52.548;4.918;2023-10-08T17:40:47;3.53;;;2.17;;
16977;SDS011;8605;52.548;4.918;2023-10-08T17:43:15;2.37;;;1.50;;
16977;SDS011;8605;52.548;4.918;2023-10-08T17:45:43;3.13;;;1.70;;
16977;SDS011;8605;52.548;4.918;2023-10-08T17:48:12;4.23;;;1.80;;
16977;SDS011;8605;52.548;4.918;2023-10-08T17:50:40;8.63;;;1.90;;
16977;SDS011;8605;52.548;4.918;2023-10-08T17:53:09;6.67;;;2.10;;
16977;SDS011;8605;52.548;4.918;2023-10-08T17:55:38;3.77;;;1.97;;
16977;SDS011;8605;52.548;4.918;2023-10-08T17:58:06;4.57;;;1.87;;
16977;SDS011;8605;52.548;4.918;2023-10-08T18:00:35;3.73;;;1.90;;
16977;SDS011;8605;52.548;4.918;2023-10-08T18:03:07;4.57;;;2.27;;
16977;SDS011;8605;52.548;4.918;2023-10-08T18:05:36;4.10;;;1.80;;
16977;SDS011;8605;52.548;4.918;2023-10-08T18:08:04;3.07;;;1.67;;
16977;SDS011;8605;52.548;4.918;2023-10-08T18:10:33;2.83;;;2.00;;
16977;SDS011;8605;52.548;4.918;2023-10-08T18:13:03;1.70;;;1.23;;
16977;SDS011;8605;52.548;4.918;2023-10-08T18:15:33;5.07;;;2.20;;
16977;SDS011;8605;52.548;4.918;2023-10-08T18:18:04;4.33;;;1.77;;
16977;SDS011;8605;52.548;4.918;2023-10-08T18:20:36;5.70;;;2.47;;
16977;SDS011;8605;52.548;4.918;2023-10-08T18:23:10;4.30;;;1.67;;
16977;SDS011;8605;52.548;4.918;2023-10-08T18:25:38;3.73;;;2.60;;
16977;SDS011;8605;52.548;4.918;2023-10-08T18:28:08;9.07;;;2.53;;
16977;SDS011;8605;52.548;4.918;2023-10-08T18:30:36;3.57;;;2.53;;
16977;SDS011;8605;52.548;4.918;2023-10-08T18:33:04;2.63;;;1.37;;
16977;SDS011;8605;52.548;4.918;2023-10-08T18:35:32;4.23;;;2.40;;
16977;SDS011;8605;52.548;4.918;2023-10-08T18:37:59;3.20;;;1.83;;
16977;SDS011;8605;52.548;4.918;2023-10-08T18:40:27;8.50;;;2.80;;
16977;SDS011;8605;52.548;4.918;2023-10-08T18:42:58;2.90;;;1.97;;
16977;SDS011;8605;52.548;4.918;2023-10-08T18:45:28;7.10;;;2.30;;
16977;SDS011;8605;52.548;4.918;2023-10-08T18:47:56;3.97;;;2.57;;
16977;SDS011;8605;52.548;4.918;2023-10-08T18:50:23;3.07;;;1.67;;
16977;SDS011;8605;52.548;4.918;2023-10-08T18:52:51;3.63;;;2.33;;
16977;SDS011;8605;52.548;4.918;2023-10-08T18:55:21;6.87;;;2.57;;
16977;SDS011;8605;52.548;4.918;2023-10-08T18:58:01;8.23;;;2.27;;
16977;SDS011;8605;52.548;4.918;2023-10-08T19:00:31;2.47;;;2.00;;
16977;SDS011;8605;52.548;4.918;2023-10-08T19:03:00;6.53;;;2.67;;
16977;SDS011;8605;52.548;4.918;2023-10-08T19:05:31;4.03;;;2.40;;
16977;SDS011;8605;52.548;4.918;2023-10-08T19:07:59;3.27;;;1.87;;
16977;SDS011;8605;52.548;4.918;2023-10-08T19:10:27;6.67;;;3.07;;
16977;SDS011;8605;52.548;4.918;2023-10-08T19:12:56;3.30;;;2.63;;
16977;SDS011;8605;52.548;4.918;2023-10-08T19:15:25;3.47;;;2.37;;
16977;SDS011;8605;52.548;4.918;2023-10-08T19:17:54;4.43;;;2.47;;
16977;SDS011;8605;52.548;4.918;2023-10-08T19:20:31;5.27;;;2.63;;
16977;SDS011;8605;52.548;4.918;2023-10-08T19:23:03;6.13;;;3.33;;
16977;SDS011;8605;52.548;4.918;2023-10-08T19:25:31;6.43;;;3.03;;
16977;SDS011;8605;52.548;4.918;2023-10-08T19:28:01;7.90;;;3.50;;
16977;SDS011;8605;52.548;4.918;2023-10-08T19:30:31;6.23;;;4.23;;
16977;SDS011;8605;52.548;4.918;2023-10-08T19:33:01;8.57;;;3.83;;
16977;SDS011;8605;52.548;4.918;2023-10-08T19:35:30;10.97;;;4.00;;
16977;SDS011;8605;52.548;4.918;2023-10-08T19:37:59;11.40;;;3.70;;
16977;SDS011;8605;52.548;4.918;2023-10-08T19:40:32;4.17;;;2.63;;
16977;SDS011;8605;52.548;4.918;2023-10-08T19:43:00;7.57;;;3.90;;
16977;SDS011;8605;52.548;4.918;2023-10-08T19:45:32;5.87;;;2.87;;
16977;SDS011;8605;52.548;4.918;2023-10-08T19:48:04;10.53;;;3.90;;
16977;SDS011;8605;52.548;4.918;2023-10-08T19:50:32;4.40;;;3.13;;
16977;SDS011;8605;52.548;4.918;2023-10-08T19:53:00;7.80;;;3.60;;
16977;SDS011;8605;52.548;4.918;2023-10-08T19:55:28;6.07;;;3.87;;
16977;SDS011;8605;52.548;4.918;2023-10-08T19:57:56;6.47;;;3.63;;
16977;SDS011;8605;52.548;4.918;2023-10-08T20:00:24;6.40;;;4.13;;
16977;SDS011;8605;52.548;4.918;2023-10-08T20:02:53;8.37;;;4.10;;
16977;SDS011;8605;52.548;4.918;2023-10-08T20:05:23;5.60;;;3.50;;
16977;SDS011;8605;52.548;4.918;2023-10-08T20:07:50;9.60;;;4.77;;
16977;SDS011;8605;52.548;4.918;2023-10-08T20:10:19;7.27;;;3.97;;
16977;SDS011;8605;52.548;4.918;2023-10-08T20:12:48;8.83;;;3.97;;
16977;SDS011;8605;52.548;4.918;2023-10-08T20:15:19;6.17;;;4.07;;
16977;SDS011;8605;52.548;4.918;2023-10-08T20:17:49;7.50;;;4.20;;
16977;SDS011;8605;52.548;4.918;2023-10-08T20:20:18;4.43;;;3.40;;
16977;SDS011;8605;52.548;4.918;2023-10-08T20:22:49;11.80;;;4.37;;
16977;SDS011;8605;52.548;4.918;2023-10-08T20:25:19;6.60;;;4.73;;
16977;SDS011;8605;52.548;4.918;2023-10-08T20:27:48;8.83;;;4.53;;
16977;SDS011;8605;52.548;4.918;2023-10-08T20:30:16;6.50;;;4.30;;
16977;SDS011;8605;52.548;4.918;2023-10-08T20:32:46;11.40;;;5.10;;
16977;SDS011;8605;52.548;4.918;2023-10-08T20:35:15;10.00;;;3.97;;
16977;SDS011;8605;52.548;4.918;2023-10-08T20:37:44;8.50;;;3.80;;
16977;SDS011;8605;52.548;4.918;2023-10-08T20:40:14;7.10;;;4.57;;
16977;SDS011;8605;52.548;4.918;2023-10-08T20:42:46;11.37;;;5.40;;
16977;SDS011;8605;52.548;4.918;2023-10-08T20:45:14;8.67;;;4.80;;
16977;SDS011;8605;52.548;4.918;2023-10-08T20:47:42;10.53;;;6.73;;
16977;SDS011;8605;52.548;4.918;2023-10-08T20:50:11;9.93;;;5.07;;
16977;SDS011;8605;52.548;4.918;2023-10-08T20:52:57;10.57;;;5.07;;
16977;SDS011;8605;52.548;4.918;2023-10-08T20:55:31;8.50;;;4.83;;
16977;SDS011;8605;52.548;4.918;2023-10-08T20:58:01;12.00;;;5.63;;
16977;SDS011;8605;52.548;4.918;2023-10-08T21:00:30;9.33;;;5.50;;
16977;SDS011;8605;52.548;4.918;2023-10-08T21:02:58;8.37;;;5.63;;
16977;SDS011;8605;52.548;4.918;2023-10-08T21:05:29;8.07;;;4.50;;
16977;SDS011;8605;52.548;4.918;2023-10-08T21:07:57;9.57;;;5.03;;
16977;SDS011;8605;52.548;4.918;2023-10-08T21:10:26;9.77;;;5.77;;
16977;SDS011;8605;52.548;4.918;2023-10-08T21:12:55;10.90;;;6.53;;
16977;SDS011;8605;52.548;4.918;2023-10-08T21:15:24;11.50;;;6.10;;
16977;SDS011;8605;52.548;4.918;2023-10-08T21:17:53;17.43;;;7.07;;
16977;SDS011;8605;52.548;4.918;2023-10-08T21:20:22;10.60;;;5.63;;
16977;SDS011;8605;52.548;4.918;2023-10-08T21:22:51;11.47;;;5.53;;
16977;SDS011;8605;52.548;4.918;2023-10-08T21:25:20;11.00;;;6.30;;
16977;SDS011;8605;52.548;4.918;2023-10-08T21:27:50;12.20;;;6.53;;
16977;SDS011;8605;52.548;4.918;2023-10-08T21:30:21;12.57;;;6.30;;
16977;SDS011;8605;52.548;4.918;2023-10-08T21:32:52;19.97;;;6.20;;
16977;SDS011;8605;52.548;4.918;2023-10-08T21:35:20;12.77;;;6.53;;
16977;SDS011;8605;52.548;4.918;2023-10-08T21:37:48;12.17;;;7.10;;
16977;SDS011;8605;52.548;4.918;2023-10-08T21:40:16;12.03;;;6.77;;
16977;SDS011;8605;52.548;4.918;2023-10-08T21:42:47;17.13;;;7.03;;
16977;SDS011;8605;52.548;4.918;2023-10-08T21:45:15;13.97;;;6.73;;
16977;SDS011;8605;52.548;4.918;2023-10-08T21:47:47;11.40;;;6.23;;
16977;SDS011;8605;52.548;4.918;2023-10-08T21:50:16;15.37;;;7.40;;
16977;SDS011;8605;52.548;4.918;2023-10-08T21:52:45;16.27;;;7.23;;
16977;SDS011;8605;52.548;4.918;2023-10-08T21:55:14;14.87;;;6.57;;
16977;SDS011;8605;52.548;4.918;2023-10-08T21:57:43;12.03;;;6.40;;
16977;SDS011;8605;52.548;4.918;2023-10-08T22:00:12;16.47;;;8.73;;
16977;SDS011;8605;52.548;4.918;2023-10-08T22:02:59;14.57;;;7.07;;
16977;SDS011;8605;52.548;4.918;2023-10-08T22:05:28;16.23;;;9.33;;
16977;SDS011;8605;52.548;4.918;2023-10-08T22:07:58;16.87;;;8.40;;
16977;SDS011;8605;52.548;4.918;2023-10-08T22:10:30;15.40;;;7.67;;
16977;SDS011;8605;52.548;4.918;2023-10-08T22:13:00;13.97;;;9.00;;
16977;SDS011;8605;52.548;4.918;2023-10-08T22:15:35;16.37;;;8.37;;
16977;SDS011;8605;52.548;4.918;2023-10-08T22:18:13;14.20;;;7.63;;
16977;SDS011;8605;52.548;4.918;2023-10-08T22:20:52;15.10;;;7.57;;
16977;SDS011;8605;52.548;4.918;2023-10-08T22:23:20;17.70;;;9.10;;
16977;SDS011;8605;52.548;4.918;2023-10-08T22:25:53;14.43;;;8.23;;
16977;SDS011;8605;52.548;4.918;2023-10-08T22:28:21;20.93;;;9.47;;
16977;SDS011;8605;52.548;4.918;2023-10-08T22:30:52;18.97;;;9.53;;
16977;SDS011;8605;52.548;4.918;2023-10-08T22:33:23;18.03;;;9.10;;
16977;SDS011;8605;52.548;4.918;2023-10-08T22:36:00;23.80;;;9.43;;
16977;SDS011;8605;52.548;4.918;2023-10-08T22:38:31;14.07;;;7.50;;
16977;SDS011;8605;52.548;4.918;2023-10-08T22:40:58;17.70;;;9.23;;
16977;SDS011;8605;52.548;4.918;2023-10-08T22:43:40;13.40;;;8.43;;
16977;SDS011;8605;52.548;4.918;2023-10-08T22:46:09;14.87;;;8.23;;
16977;SDS011;8605;52.548;4.918;2023-10-08T22:48:39;17.63;;;8.77;;
16977;SDS011;8605;52.548;4.918;2023-10-08T22:51:11;18.80;;;9.63;;
16977;SDS011;8605;52.548;4.918;2023-10-08T22:53:49;18.87;;;9.73;;
16977;SDS011;8605;52.548;4.918;2023-10-08T22:56:17;16.73;;;8.20;;
16977;SDS011;8605;52.548;4.918;2023-10-08T22:58:46;18.47;;;10.37;;
16977;SDS011;8605;52.548;4.918;2023-10-08T23:01:14;15.00;;;9.63;;
16977;SDS011;8605;52.548;4.918;2023-10-08T23:03:46;18.50;;;10.47;;
16977;SDS011;8605;52.548;4.918;2023-10-08T23:06:17;20.63;;;10.93;;
16977;SDS011;8605;52.548;4.918;2023-10-08T23:08:47;20.70;;;10.57;;
16977;SDS011;8605;52.548;4.918;2023-10-08T23:11:15;17.03;;;10.50;;
16977;SDS011;8605;52.548;4.918;2023-10-08T23:13:44;25.73;;;12.77;;
16977;SDS011;8605;52.548;4.918;2023-10-08T23:16:12;20.20;;;10.10;;
16977;SDS011;8605;52.548;4.918;2023-10-08T23:18:42;24.30;;;11.63;;
16977;SDS011;8605;52.548;4.918;2023-10-08T23:21:13;20.10;;;11.47;;
16977;SDS011;8605;52.548;4.918;2023-10-08T23:23:42;21.47;;;11.97;;
16977;SDS011;8605;52.548;4.918;2023-10-08T23:26:12;25.93;;;13.27;;
16977;SDS011;8605;52.548;4.918;2023-10-08T23:28:43;26.47;;;12.20;;
16977;SDS011;8605;52.548;4.918;2023-10-08T23:31:11;27.40;;;14.93;;
16977;SDS011;8605;52.548;4.918;2023-10-08T23:33:39;24.73;;;12.07;;
16977;SDS011;8605;52.548;4.918;2023-10-08T23:36:15;28.53;;;15.20;;
16977;SDS011;8605;52.548;4.918;2023-10-08T23:38:52;33.33;;;15.43;;
16977;SDS011;8605;52.548;4.918;2023-10-08T23:41:33;26.60;;;14.73;;
16977;SDS011;8605;52.548;4.918;2023-10-08T23:44:14;30.07;;;17.17;;
16977;SDS011;8605;52.548;4.918;2023-10-08T23:46:44;29.10;;;14.03;;
16977;SDS011;8605;52.548;4.918;2023-10-08T23:49:23;30.87;;;15.17;;
16977;SDS011;8605;52.548;4.918;2023-10-08T23:51:56;25.10;;;13.13;;
16977;SDS011;8605;52.548;4.918;2023-10-08T23:54:23;32.03;;;14.83;;
16977;SDS011;8605;52.548;4.918;2023-10-08T23:56:59;29.40;;;12.83;;
16977;SDS011;8605;52.548;4.918;2023-10-08T23:59:32;29.33;;;13.93;;
